createdAt,value
2024-05-09T00:01:38.093Z,7.43
2024-05-09T00:04:12.009Z,7.70
2024-05-09T00:06:43.560Z,7.78
2024-05-09T00:09:14.691Z,8.38
2024-05-09T00:11:46.265Z,8.40
2024-05-09T00:14:17.508Z,7.88
2024-05-09T00:16:50.045Z,8.23
2024-05-09T00:19:23.993Z,8.18
2024-05-09T00:21:55.588Z,8.27
2024-05-09T00:24:26.762Z,8.40
2024-05-09T00:26:58.344Z,8.93
2024-05-09T00:29:29.816Z,8.45
2024-05-09T00:32:01.571Z,8.40
2024-05-09T00:34:35.536Z,9.40
2024-05-09T00:37:07.396Z,8.40
2024-05-09T00:39:38.572Z,8.75
2024-05-09T00:42:10.152Z,8.35
2024-05-09T00:44:41.346Z,8.88
2024-05-09T00:47:12.996Z,9.60
2024-05-09T00:49:47.349Z,9.57
2024-05-09T00:52:19.483Z,9.43
2024-05-09T00:54:50.867Z,9.05
2024-05-09T00:57:22.473Z,9.07
2024-05-09T00:59:54.700Z,7.80
2024-05-09T01:02:28.794Z,7.93
2024-05-09T01:05:02.882Z,7.90
2024-05-09T01:07:34.700Z,8.45
2024-05-09T01:10:11.734Z,7.93
2024-05-09T01:12:48.654Z,7.47
2024-05-09T01:15:19.837Z,7.68
2024-05-09T01:17:51.994Z,6.90
2024-05-09T01:20:36.873Z,6.90
2024-05-09T01:23:16.879Z,6.97
2024-05-09T01:25:48.483Z,8.15
2024-05-09T01:28:20.097Z,8.45
2024-05-09T01:30:51.268Z,7.45
2024-05-09T01:33:23.053Z,7.00
2024-05-09T01:35:54.354Z,7.07
2024-05-09T01:38:28.697Z,7.50
2024-05-09T01:41:00.163Z,7.68
2024-05-09T01:43:31.763Z,7.78
2024-05-09T01:46:02.906Z,7.22
2024-05-09T01:48:34.603Z,7.15
2024-05-09T01:51:05.941Z,7.50
2024-05-09T01:53:40.843Z,7.85
2024-05-09T01:56:12.461Z,8.30
2024-05-09T01:58:44.153Z,8.43
2024-05-09T02:01:15.357Z,7.95
2024-05-09T02:03:49.543Z,8.30
2024-05-09T02:06:20.943Z,8.68
2024-05-09T02:08:55.164Z,8.85
2024-05-09T02:11:26.372Z,7.78
2024-05-09T02:13:58.002Z,7.20
2024-05-09T02:16:29.152Z,7.50
2024-05-09T02:19:00.916Z,8.57
2024-05-09T02:21:34.244Z,8.07
2024-05-09T02:24:08.877Z,7.80
2024-05-09T02:26:40.159Z,7.68
2024-05-09T02:29:11.837Z,7.53
2024-05-09T02:31:43.209Z,7.10
2024-05-09T02:34:14.878Z,7.25
2024-05-09T02:36:46.049Z,7.32
2024-05-09T02:39:17.630Z,7.78
2024-05-09T02:41:48.843Z,6.53
2024-05-09T02:44:17.887Z,7.00
2024-05-09T02:46:49.270Z,8.13
2024-05-09T02:49:18.468Z,7.68
2024-05-09T02:51:49.632Z,7.20
2024-05-09T02:54:21.168Z,6.50
2024-05-09T02:56:52.406Z,5.57
2024-05-09T02:59:21.490Z,5.57
2024-05-09T03:01:52.787Z,5.93
2024-05-09T03:04:21.932Z,5.20
2024-05-09T03:06:53.171Z,5.35
2024-05-09T03:09:25.263Z,5.32
2024-05-09T03:11:56.513Z,5.53
2024-05-09T03:14:25.516Z,5.97
2024-05-09T03:16:56.794Z,5.43
2024-05-09T03:19:25.971Z,5.93
2024-05-09T03:21:57.113Z,5.43
2024-05-09T03:24:28.699Z,5.25
2024-05-09T03:26:59.918Z,4.40
2024-05-09T03:29:28.934Z,4.28
2024-05-09T03:32:00.160Z,4.70
2024-05-09T03:34:29.134Z,2.92
2024-05-09T03:37:00.226Z,3.65
2024-05-09T03:39:34.508Z,3.72
2024-05-09T03:42:05.779Z,3.47
2024-05-09T03:44:37.414Z,4.22
2024-05-09T03:47:06.042Z,5.95
2024-05-09T03:49:37.721Z,5.70
2024-05-09T03:52:06.740Z,4.60
2024-05-09T03:54:47.594Z,4.10
2024-05-09T03:57:16.160Z,3.35
2024-05-09T03:59:47.648Z,3.20
2024-05-09T04:02:16.203Z,3.55
2024-05-09T04:04:47.996Z,3.30
2024-05-09T04:07:17.089Z,3.33
2024-05-09T04:09:51.400Z,4.07
2024-05-09T04:12:19.953Z,3.83
2024-05-09T04:14:51.486Z,3.25
2024-05-09T04:17:19.994Z,3.40
2024-05-09T04:19:51.696Z,4.00
2024-05-09T04:22:20.248Z,2.97
2024-05-09T04:24:54.651Z,2.88
2024-05-09T04:27:23.154Z,2.38
2024-05-09T04:29:54.741Z,2.28
2024-05-09T04:32:23.326Z,2.50
2024-05-09T04:34:55.114Z,2.50
2024-05-09T04:37:23.666Z,2.90
2024-05-09T04:39:58.058Z,2.60
2024-05-09T04:42:26.639Z,2.47
2024-05-09T04:44:58.812Z,2.33
2024-05-09T04:47:27.456Z,2.42
2024-05-09T04:49:59.062Z,2.35
2024-05-09T04:52:27.549Z,2.60
2024-05-09T04:55:01.863Z,1.90
2024-05-09T04:57:30.403Z,2.15
2024-05-09T05:00:04.069Z,2.30
2024-05-09T05:02:34.087Z,1.83
2024-05-09T05:05:05.990Z,1.73
2024-05-09T05:07:34.600Z,2.85
2024-05-09T05:10:14.839Z,1.90
2024-05-09T05:13:07.884Z,2.00
2024-05-09T05:15:39.444Z,2.22
2024-05-09T05:18:08.129Z,1.85
2024-05-09T05:20:39.926Z,2.05
2024-05-09T05:23:10.921Z,2.10
2024-05-09T05:25:47.962Z,2.40
2024-05-09T05:28:17.343Z,2.63
2024-05-09T05:30:49.544Z,2.25
2024-05-09T05:33:19.275Z,1.95
2024-05-09T05:35:51.595Z,2.20
2024-05-09T05:38:23.793Z,2.35
2024-05-09T05:41:00.601Z,2.53
2024-05-09T05:43:29.725Z,2.67
2024-05-09T05:46:01.259Z,2.33
2024-05-09T05:48:30.238Z,2.53
2024-05-09T05:51:04.303Z,2.83
2024-05-09T05:53:33.579Z,2.40
2024-05-09T05:56:08.632Z,2.40
2024-05-09T05:58:37.164Z,2.45
2024-05-09T06:01:09.478Z,2.60
2024-05-09T06:03:38.583Z,2.83
2024-05-09T06:06:10.570Z,2.33
2024-05-09T06:08:39.184Z,2.70
2024-05-09T06:11:13.488Z,2.67
2024-05-09T06:13:43.695Z,2.20
2024-05-09T06:16:15.243Z,2.40
2024-05-09T06:18:43.871Z,2.33
2024-05-09T06:21:16.000Z,2.22
2024-05-09T06:23:51.274Z,1.65
2024-05-09T06:26:25.738Z,1.75
2024-05-09T06:28:54.364Z,1.73
2024-05-09T06:31:25.950Z,2.10
2024-05-09T06:33:54.588Z,1.63
2024-05-09T06:36:26.165Z,1.90
2024-05-09T06:38:54.655Z,1.83
2024-05-09T06:41:28.994Z,1.52
2024-05-09T06:43:57.691Z,1.75
2024-05-09T06:46:29.586Z,1.73
2024-05-09T06:48:59.313Z,1.33
2024-05-09T06:53:59.209Z,1.70
2024-05-09T06:56:33.409Z,1.90
2024-05-09T06:59:02.135Z,1.90
2024-05-09T07:01:33.952Z,1.83
2024-05-09T07:04:02.649Z,1.58
2024-05-09T07:06:34.246Z,2.17
2024-05-09T07:09:02.746Z,2.45
2024-05-09T07:11:38.218Z,2.30
2024-05-09T07:14:06.905Z,2.50
2024-05-09T07:16:38.450Z,1.77
2024-05-09T07:19:07.263Z,1.90
2024-05-09T07:21:38.941Z,1.73
2024-05-09T07:24:07.530Z,1.98
2024-05-09T07:26:41.786Z,1.80
2024-05-09T07:29:10.379Z,1.75
2024-05-09T07:31:41.918Z,1.80
2024-05-09T07:34:12.090Z,2.00
2024-05-09T07:36:43.776Z,1.95
2024-05-09T07:39:12.406Z,1.80
2024-05-09T07:41:46.731Z,1.65
2024-05-09T07:44:15.370Z,1.70
2024-05-09T07:47:48.600Z,1.75
2024-05-09T07:53:29.728Z,1.90
2024-05-09T07:55:02.459Z,1.80
2024-05-09T07:57:37.479Z,1.60
2024-05-09T08:00:08.239Z,1.80
2024-05-09T08:02:43.197Z,1.83
2024-05-09T08:05:11.886Z,1.67
2024-05-09T08:07:45.355Z,1.77
2024-05-09T08:10:18.716Z,1.63
2024-05-09T08:12:56.118Z,1.70
2024-05-09T08:15:24.695Z,1.80
2024-05-09T08:17:57.085Z,2.33
2024-05-09T08:20:31.116Z,1.77
2024-05-09T08:23:06.748Z,1.85
2024-05-09T08:25:35.325Z,15.18
2024-05-09T08:28:11.062Z,30.70
2024-05-09T08:30:39.822Z,3.60
2024-05-09T08:33:11.599Z,3.30
2024-05-09T08:35:40.167Z,1.98
2024-05-09T08:38:12.131Z,2.28
2024-05-09T08:40:41.464Z,1.92
2024-05-09T08:43:17.021Z,2.30
2024-05-09T08:45:47.060Z,1.90
2024-05-09T08:48:20.878Z,2.30
2024-05-09T08:50:53.452Z,2.10
2024-05-09T08:53:25.216Z,2.17
2024-05-09T08:55:55.148Z,2.00
2024-05-09T08:58:32.456Z,2.13
2024-05-09T09:01:02.847Z,2.20
2024-05-09T09:03:39.377Z,2.20
2024-05-09T09:06:11.122Z,2.40
2024-05-09T09:08:43.226Z,2.58
2024-05-09T09:11:12.184Z,2.83
2024-05-09T09:13:46.402Z,2.30
2024-05-09T09:16:16.330Z,3.20
2024-05-09T09:18:50.039Z,2.08
2024-05-09T09:21:19.023Z,2.67
2024-05-09T09:23:50.621Z,2.40
2024-05-09T09:26:19.454Z,3.40
2024-05-09T09:28:54.461Z,1.93
2024-05-09T09:31:23.081Z,2.65
2024-05-09T09:33:55.136Z,2.30
2024-05-09T09:36:23.847Z,3.15
2024-05-09T09:38:55.507Z,2.45
2024-05-09T09:41:30.036Z,3.22
2024-05-09T09:44:06.522Z,2.58
2024-05-09T09:46:36.386Z,2.40
2024-05-09T09:49:09.449Z,2.20
2024-05-09T09:51:43.572Z,2.78
2024-05-09T09:54:16.367Z,2.30
2024-05-09T09:56:47.712Z,2.17
2024-05-09T09:59:24.221Z,3.00
2024-05-09T10:01:52.895Z,2.50
2024-05-09T10:04:24.878Z,2.13
2024-05-09T10:06:58.778Z,2.35
2024-05-09T10:09:30.598Z,2.40
2024-05-09T10:12:09.521Z,2.42
2024-05-09T10:14:50.625Z,3.28
2024-05-09T10:17:19.232Z,2.55
2024-05-09T10:19:51.090Z,2.20
2024-05-09T10:22:28.115Z,2.65
2024-05-09T10:25:08.330Z,4.30
2024-05-09T10:27:39.634Z,2.90
2024-05-09T10:30:29.424Z,2.20
2024-05-09T10:33:05.766Z,2.22
2024-05-09T10:35:34.760Z,2.10
2024-05-09T10:38:09.874Z,2.85
2024-05-09T10:40:40.279Z,2.72
2024-05-09T10:43:12.058Z,2.40
2024-05-09T10:45:43.706Z,2.90
2024-05-09T10:48:15.955Z,2.58
2024-05-09T10:50:49.698Z,2.58
2024-05-09T10:53:22.116Z,2.45
2024-05-09T10:55:57.135Z,2.70
2024-05-09T10:58:28.762Z,2.22
2024-05-09T11:01:05.434Z,2.20
2024-05-09T11:03:38.269Z,2.20
2024-05-09T11:06:09.825Z,2.35
2024-05-09T11:08:42.164Z,2.38
2024-05-09T11:11:11.742Z,2.40
2024-05-09T11:13:43.338Z,2.63
2024-05-09T11:16:21.292Z,2.00
2024-05-09T11:18:59.688Z,2.20
2024-05-09T11:21:28.772Z,2.40
2024-05-09T11:24:01.365Z,2.00
2024-05-09T11:26:33.019Z,2.88
2024-05-09T11:29:04.159Z,2.20
2024-05-09T11:31:46.751Z,2.30
2024-05-09T11:34:18.992Z,2.10
2024-05-09T11:36:48.042Z,2.20
2024-05-09T11:39:19.234Z,1.90
2024-05-09T11:41:48.155Z,2.15
2024-05-09T11:44:19.218Z,2.53
2024-05-09T11:46:51.005Z,2.25
2024-05-09T11:49:25.335Z,2.30
2024-05-09T11:51:55.305Z,2.50
2024-05-09T11:54:26.522Z,2.40
2024-05-09T11:56:55.499Z,2.13
2024-05-09T11:59:26.583Z,2.05
2024-05-09T12:01:58.395Z,2.30
2024-05-09T12:04:29.884Z,2.00
2024-05-09T12:06:59.098Z,2.53
2024-05-09T12:09:30.301Z,2.10
2024-05-09T12:11:59.253Z,2.22
2024-05-09T12:14:30.399Z,1.90
2024-05-09T12:17:03.962Z,1.90
2024-05-09T12:19:35.453Z,3.13
2024-05-09T12:22:04.928Z,2.65
2024-05-09T12:24:36.144Z,2.08
2024-05-09T12:27:05.666Z,1.90
2024-05-09T12:29:38.883Z,2.10
2024-05-09T12:32:10.770Z,2.55
2024-05-09T12:34:42.096Z,2.13
2024-05-09T12:37:11.266Z,2.25
2024-05-09T12:39:42.488Z,1.90
2024-05-09T12:42:14.625Z,1.92
2024-05-09T12:44:51.272Z,1.90
2024-05-09T12:47:23.024Z,1.80
2024-05-09T12:49:54.335Z,1.90
2024-05-09T12:52:23.501Z,1.80
2024-05-09T12:54:54.934Z,2.00
2024-05-09T12:57:25.643Z,2.30
2024-05-09T12:59:56.827Z,2.10
2024-05-09T13:02:28.634Z,2.13
2024-05-09T13:04:59.969Z,2.45
2024-05-09T13:07:29.147Z,1.80
2024-05-09T13:10:00.339Z,2.00
2024-05-09T13:12:29.362Z,2.38
2024-05-09T13:15:00.584Z,3.60
2024-05-09T13:17:33.101Z,2.25
2024-05-09T13:20:07.083Z,2.30
2024-05-09T13:22:39.169Z,2.60
2024-05-09T13:25:10.626Z,2.25
2024-05-09T13:27:39.814Z,1.92
2024-05-09T13:30:17.675Z,2.40
2024-05-09T13:32:57.537Z,2.20
2024-05-09T13:35:26.757Z,2.22
2024-05-09T13:37:58.802Z,2.40
2024-05-09T13:40:33.085Z,2.80
2024-05-09T13:43:07.299Z,3.00
2024-05-09T13:45:36.307Z,2.60
2024-05-09T13:48:11.121Z,2.80
2024-05-09T13:50:39.728Z,3.00
2024-05-09T13:53:11.834Z,3.03
2024-05-09T13:55:40.934Z,3.13
2024-05-09T13:58:12.589Z,3.05
2024-05-09T14:00:46.673Z,3.70
2024-05-09T14:03:23.295Z,3.40
2024-05-09T14:05:52.411Z,3.72
2024-05-09T14:08:24.709Z,2.80
2024-05-09T14:10:53.781Z,2.80
2024-05-09T14:13:25.514Z,2.40
2024-05-09T14:15:54.045Z,2.47
2024-05-09T14:18:28.381Z,3.05
2024-05-09T14:20:56.867Z,2.90
2024-05-09T14:23:28.420Z,2.97
2024-05-09T14:25:56.825Z,2.97
2024-05-09T14:28:29.021Z,2.95
2024-05-09T14:30:57.729Z,3.10
2024-05-09T14:33:32.189Z,3.10
2024-05-09T14:36:00.847Z,3.00
2024-05-09T14:38:32.558Z,3.08
2024-05-09T14:41:00.974Z,2.90
2024-05-09T14:43:32.609Z,3.15
2024-05-09T14:46:01.167Z,2.88
2024-05-09T14:48:35.657Z,3.15
2024-05-09T14:51:04.443Z,3.10
2024-05-09T14:53:35.862Z,2.95
2024-05-09T14:56:04.517Z,3.42
2024-05-09T14:58:36.005Z,2.95
2024-05-09T15:01:04.769Z,2.83
2024-05-09T15:03:38.910Z,2.90
2024-05-09T15:06:07.647Z,3.20
2024-05-09T15:08:39.197Z,3.10
2024-05-09T15:11:07.664Z,2.92
2024-05-09T15:13:39.213Z,3.20
2024-05-09T15:16:08.310Z,2.90
2024-05-09T15:18:44.017Z,3.22
2024-05-09T15:21:12.930Z,3.38
2024-05-09T15:23:44.425Z,3.72
2024-05-09T15:26:12.972Z,3.38
2024-05-09T15:28:44.665Z,3.28
2024-05-09T15:31:13.073Z,3.10
2024-05-09T15:33:47.136Z,3.20
2024-05-09T15:36:15.668Z,3.30
2024-05-09T15:38:47.135Z,3.42
2024-05-09T15:41:15.572Z,3.28
2024-05-09T15:43:47.006Z,3.13
2024-05-09T15:46:15.690Z,3.47
2024-05-09T15:48:49.933Z,3.28
2024-05-09T15:51:18.411Z,3.33
2024-05-09T15:53:50.048Z,2.70
2024-05-09T15:56:18.555Z,3.13
2024-05-09T15:58:50.133Z,3.30
2024-05-09T16:01:18.616Z,3.13
2024-05-09T16:03:53.391Z,3.10
2024-05-09T16:06:22.282Z,3.20
2024-05-09T16:08:53.756Z,3.38
2024-05-09T16:11:22.156Z,3.58
2024-05-09T16:13:53.518Z,3.67
2024-05-09T16:16:22.165Z,3.75
2024-05-09T16:18:56.508Z,3.80
2024-05-09T16:21:24.976Z,3.47
2024-05-09T16:23:56.439Z,3.42
2024-05-09T16:26:24.854Z,3.17
2024-05-09T16:28:56.396Z,3.28
2024-05-09T16:31:25.109Z,3.50
2024-05-09T16:33:59.759Z,3.30
2024-05-09T16:36:28.373Z,3.47
2024-05-09T16:39:00.254Z,3.70
2024-05-09T16:41:28.729Z,3.45
2024-05-09T16:44:01.796Z,3.58
2024-05-09T16:46:30.639Z,3.17
2024-05-09T16:49:05.787Z,3.83
2024-05-09T16:51:34.413Z,3.72
2024-05-09T16:54:05.893Z,3.85
2024-05-09T16:56:34.339Z,4.10
2024-05-09T16:59:05.892Z,3.58
2024-05-09T17:01:34.490Z,3.60
2024-05-09T17:04:09.185Z,3.40
2024-05-09T17:06:37.918Z,2.80
2024-05-09T17:09:11.961Z,3.28
2024-05-09T17:11:46.671Z,3.55
2024-05-09T17:14:18.483Z,3.25
2024-05-09T17:16:49.891Z,3.08
2024-05-09T17:19:21.559Z,3.63
2024-05-09T17:21:53.443Z,3.60
2024-05-09T17:24:22.341Z,2.92
2024-05-09T17:26:54.173Z,3.20
2024-05-09T17:29:23.136Z,3.63
2024-05-09T17:31:54.200Z,3.58
2024-05-09T17:34:26.208Z,3.88
2024-05-09T17:36:57.581Z,4.00
2024-05-09T17:39:26.725Z,4.00
2024-05-09T17:41:57.714Z,4.63
2024-05-09T17:44:27.164Z,4.65
2024-05-09T17:46:58.549Z,4.65
2024-05-09T17:49:30.396Z,4.53
2024-05-09T17:52:01.594Z,5.43
2024-05-09T17:54:30.527Z,6.90
2024-05-09T17:57:01.619Z,7.25
2024-05-09T17:59:30.605Z,7.35
2024-05-09T18:02:02.019Z,7.32
2024-05-09T18:04:34.120Z,7.38
2024-05-09T18:07:05.400Z,7.38
2024-05-09T18:09:34.262Z,7.55
2024-05-09T18:12:05.335Z,8.10
2024-05-09T18:14:34.205Z,7.70
2024-05-09T18:17:05.904Z,8.13
2024-05-09T18:19:37.733Z,9.35
2024-05-09T18:22:09.210Z,9.98
2024-05-09T18:24:38.310Z,10.50
2024-05-09T18:27:10.123Z,9.55
2024-05-09T18:29:39.014Z,10.93
2024-05-09T18:32:10.388Z,10.07
2024-05-09T18:34:42.001Z,10.18
2024-05-09T18:37:13.241Z,9.45
2024-05-09T18:39:42.406Z,10.88
2024-05-09T18:42:13.715Z,13.05
2024-05-09T18:44:42.679Z,14.73
2024-05-09T18:47:16.032Z,12.45
2024-05-09T18:49:49.289Z,13.82
2024-05-09T18:52:20.579Z,13.13
2024-05-09T18:54:49.641Z,12.23
2024-05-09T18:57:20.774Z,12.00
2024-05-09T18:59:49.649Z,10.88
2024-05-09T19:02:20.944Z,10.43
2024-05-09T19:04:52.940Z,10.40
2024-05-09T19:07:24.292Z,10.80
2024-05-09T19:09:53.431Z,10.80
2024-05-09T19:12:24.417Z,10.82
2024-05-09T19:14:53.508Z,8.70
2024-05-09T19:17:24.703Z,9.00
2024-05-09T19:19:56.764Z,9.98
2024-05-09T19:22:28.366Z,9.02
2024-05-09T19:24:57.282Z,8.77
2024-05-09T19:27:28.845Z,10.02
2024-05-09T19:29:58.054Z,9.65
2024-05-09T19:32:29.507Z,8.77
2024-05-09T19:35:01.126Z,8.18
2024-05-09T19:37:32.481Z,8.40
2024-05-09T19:40:01.391Z,8.07
2024-05-09T19:42:32.731Z,7.80
2024-05-09T19:45:01.717Z,7.53
2024-05-09T19:47:32.843Z,7.57
2024-05-09T19:50:10.526Z,8.25
2024-05-09T19:52:42.214Z,7.03
2024-05-09T19:55:11.252Z,8.70
2024-05-09T19:57:42.442Z,7.22
2024-05-09T20:00:17.913Z,9.48
2024-05-09T20:02:53.541Z,9.23
2024-05-09T20:05:25.528Z,9.13
2024-05-09T20:07:57.050Z,8.00
2024-05-09T20:10:31.464Z,7.18
2024-05-09T20:13:05.708Z,6.93
2024-05-09T20:15:37.061Z,6.40
2024-05-09T20:20:42.899Z,7.93
2024-05-09T20:23:16.208Z,7.57
2024-05-09T20:25:45.078Z,9.68
2024-05-09T20:28:16.705Z,9.13
2024-05-09T20:30:45.761Z,9.55
2024-05-09T20:33:17.014Z,8.93
2024-05-09T20:35:48.732Z,8.70
2024-05-09T20:38:19.812Z,8.73
2024-05-09T20:40:49.093Z,8.68
2024-05-09T20:43:20.740Z,7.72
2024-05-09T20:45:49.785Z,7.45
2024-05-09T20:48:21.137Z,7.50
2024-05-09T20:50:52.726Z,7.88
2024-05-09T20:53:23.758Z,7.72
2024-05-09T20:55:52.695Z,8.20
2024-05-09T20:58:23.850Z,8.10
2024-05-09T21:00:52.841Z,8.07
2024-05-09T21:03:24.015Z,8.25
2024-05-09T21:05:56.298Z,8.10
2024-05-09T21:08:27.961Z,7.88
2024-05-09T21:10:56.885Z,8.23
2024-05-09T21:13:28.095Z,9.18
2024-05-09T21:15:57.198Z,8.40
2024-05-09T21:18:28.308Z,8.40
2024-05-09T21:20:59.963Z,8.07
2024-05-09T21:23:31.076Z,8.80
2024-05-09T21:25:59.942Z,8.45
2024-05-09T21:28:31.586Z,7.75
2024-05-09T21:31:00.490Z,7.93
2024-05-09T21:33:31.691Z,8.00
2024-05-09T21:36:03.273Z,7.25
2024-05-09T21:38:34.508Z,6.95
2024-05-09T21:41:03.345Z,7.28
2024-05-09T21:43:34.395Z,7.13
2024-05-09T21:46:03.457Z,7.45
2024-05-09T21:48:34.668Z,7.18
2024-05-09T21:51:14.220Z,7.45
2024-05-09T21:53:45.415Z,7.68
2024-05-09T21:56:14.347Z,7.00
2024-05-09T21:58:45.344Z,7.07
2024-05-09T22:01:14.463Z,6.47
2024-05-09T22:03:45.973Z,6.15
2024-05-09T22:06:17.715Z,6.30
2024-05-09T22:08:48.724Z,6.78
2024-05-09T22:11:17.661Z,6.88
2024-05-09T22:13:48.679Z,6.30
2024-05-09T22:16:17.999Z,6.18
2024-05-09T22:18:49.283Z,6.05
2024-05-09T22:21:20.953Z,5.47
2024-05-09T22:23:52.190Z,5.50
2024-05-09T22:26:21.138Z,5.22
2024-05-09T22:28:52.071Z,4.82
2024-05-09T22:31:21.052Z,4.70
2024-05-09T22:33:52.480Z,4.60
2024-05-09T22:36:24.716Z,4.32
2024-05-09T22:38:55.654Z,4.35
2024-05-09T22:41:24.575Z,4.20
2024-05-09T22:43:55.558Z,4.22
2024-05-09T22:46:24.579Z,4.07
2024-05-09T22:48:55.975Z,3.70
2024-05-09T22:51:27.578Z,3.88
2024-05-09T22:53:58.688Z,3.40
2024-05-09T22:56:30.847Z,3.35
2024-05-09T22:59:00.831Z,3.70
2024-05-09T23:01:32.559Z,3.58
2024-05-09T23:04:02.343Z,4.20
2024-05-09T23:06:37.501Z,4.32
2024-05-09T23:09:08.191Z,3.83
2024-05-09T23:11:45.811Z,4.28
2024-05-09T23:14:14.415Z,4.93
2024-05-09T23:16:45.973Z,4.60
2024-05-09T23:19:14.604Z,4.10
2024-05-09T23:21:48.740Z,3.80
2024-05-09T23:24:17.270Z,3.33
2024-05-09T23:26:48.541Z,3.40
2024-05-09T23:29:16.917Z,3.30
2024-05-09T23:31:48.216Z,3.08
2024-05-09T23:34:16.904Z,2.88
2024-05-09T23:36:51.223Z,3.67
2024-05-09T23:39:19.717Z,2.88
2024-05-09T23:41:51.272Z,2.67
2024-05-09T23:44:19.778Z,2.65
2024-05-09T23:46:51.313Z,2.67
2024-05-09T23:49:19.794Z,2.60
2024-05-09T23:51:53.951Z,2.80
2024-05-09T23:54:22.450Z,2.60
2024-05-09T23:56:53.924Z,2.55
2024-05-09T23:59:22.316Z,2.80
